createdAt,value
2022-09-15T00:01:07.960Z,52.32
2022-09-15T00:03:35.474Z,51.42
2022-09-15T00:06:03.261Z,51.15
2022-09-15T00:08:30.932Z,51.26
2022-09-15T00:11:06.267Z,50.37
2022-09-15T00:13:35.715Z,50.10
2022-09-15T00:16:04.189Z,50.56
2022-09-15T00:18:31.577Z,51.05
2022-09-15T00:20:58.937Z,51.78
2022-09-15T00:23:26.182Z,55.11
2022-09-15T00:25:53.932Z,55.95
2022-09-15T00:28:22.665Z,56.05
2022-09-15T00:30:52.360Z,56.19
2022-09-15T00:33:21.090Z,55.63
2022-09-15T00:35:53.567Z,54.71
2022-09-15T00:38:21.584Z,55.20
2022-09-15T00:40:56.366Z,55.14
2022-09-15T00:43:42.167Z,55.21
2022-09-15T00:46:10.601Z,55.63
2022-09-15T00:48:41.667Z,55.34
2022-09-15T00:51:11.883Z,54.47
2022-09-15T00:53:39.832Z,53.90
2022-09-15T00:56:09.678Z,54.78
2022-09-15T00:59:07.644Z,54.47
2022-09-15T01:01:35.635Z,54.43
2022-09-15T01:04:03.151Z,54.36
2022-09-15T01:06:39.078Z,53.94
2022-09-15T01:09:15.482Z,54.46
2022-09-15T01:11:42.997Z,53.65
2022-09-15T01:14:11.148Z,55.09
2022-09-15T01:16:59.532Z,54.08
2022-09-15T01:19:55.335Z,54.17
2022-09-15T01:22:45.348Z,54.82
2022-09-15T01:25:50.103Z,54.86
2022-09-15T01:28:23.032Z,55.41
2022-09-15T01:31:01.068Z,54.66
2022-09-15T01:33:35.414Z,54.49
2022-09-15T01:36:14.371Z,54.58
2022-09-15T01:38:54.648Z,54.14
2022-09-15T01:41:29.615Z,54.72
2022-09-15T01:44:10.090Z,54.69
2022-09-15T01:46:41.345Z,54.11
2022-09-15T01:49:12.822Z,54.12
2022-09-15T01:51:41.866Z,54.26
2022-09-15T01:54:10.550Z,53.90
2022-09-15T01:56:39.154Z,53.86
2022-09-15T01:59:06.477Z,53.02
2022-09-15T02:01:50.018Z,52.11
2022-09-15T02:04:32.392Z,50.95
2022-09-15T02:07:31.995Z,51.25
2022-09-15T02:10:05.736Z,51.53
2022-09-15T02:12:34.054Z,51.46
2022-09-15T02:15:08.697Z,51.24
2022-09-15T02:17:42.742Z,50.08
2022-09-15T02:20:17.330Z,48.87
2022-09-15T02:22:50.364Z,49.56
2022-09-15T02:25:28.850Z,49.30
2022-09-15T02:28:01.119Z,49.47
2022-09-15T02:30:31.741Z,51.92
2022-09-15T02:33:03.979Z,51.55
2022-09-15T02:35:32.783Z,53.30
2022-09-15T02:38:01.168Z,53.44
2022-09-15T02:40:29.374Z,51.71
2022-09-15T02:43:01.791Z,50.27
2022-09-15T02:45:31.146Z,49.59
2022-09-15T02:47:58.593Z,47.48
2022-09-15T02:50:26.680Z,46.21
2022-09-15T02:52:54.874Z,45.88
2022-09-15T02:55:22.696Z,46.08
2022-09-15T02:57:49.993Z,46.83
2022-09-15T03:00:19.380Z,46.16
2022-09-15T03:02:52.004Z,46.89
2022-09-15T03:05:22.467Z,46.85
2022-09-15T03:07:51.100Z,46.29
2022-09-15T03:10:18.872Z,47.86
2022-09-15T03:12:51.310Z,48.39
2022-09-15T03:15:20.991Z,49.76
2022-09-15T03:17:48.749Z,50.10
2022-09-15T03:20:20.245Z,49.83
2022-09-15T03:22:49.549Z,50.92
2022-09-15T03:25:19.689Z,51.80
2022-09-15T03:27:47.758Z,47.91
2022-09-15T03:30:15.579Z,48.07
2022-09-15T03:32:42.892Z,47.72
2022-09-15T03:35:10.239Z,47.86
2022-09-15T03:37:37.540Z,47.93
2022-09-15T03:40:05.410Z,48.52
2022-09-15T03:42:32.839Z,49.20
2022-09-15T03:45:00.170Z,50.39
2022-09-15T03:47:27.404Z,50.08
2022-09-15T03:49:55.327Z,50.26
2022-09-15T03:52:22.605Z,50.15
2022-09-15T03:54:50.000Z,50.52
2022-09-15T03:57:17.256Z,50.30
2022-09-15T03:59:44.527Z,50.52
2022-09-15T04:02:11.841Z,50.07
2022-09-15T04:04:39.134Z,51.01
2022-09-15T04:07:06.343Z,50.99
2022-09-15T04:09:33.674Z,50.13
2022-09-15T04:12:00.864Z,51.49
2022-09-15T04:14:28.188Z,51.56
2022-09-15T04:16:55.522Z,50.41
2022-09-15T04:19:22.739Z,50.42
2022-09-15T04:21:50.114Z,50.31
2022-09-15T04:24:17.381Z,50.05
2022-09-15T04:26:45.204Z,49.87
2022-09-15T04:29:14.913Z,49.70
2022-09-15T04:31:42.593Z,50.10
2022-09-15T04:34:10.262Z,48.11
2022-09-15T04:36:37.836Z,48.44
2022-09-15T04:39:06.524Z,48.15
2022-09-15T04:41:34.086Z,47.34
2022-09-15T04:44:02.103Z,45.53
2022-09-15T04:46:29.433Z,45.16
2022-09-15T04:48:57.531Z,47.35
2022-09-15T04:51:27.205Z,48.65
2022-09-15T04:53:54.951Z,47.11
2022-09-15T04:56:24.560Z,46.78
2022-09-15T04:58:56.484Z,45.70
2022-09-15T05:01:30.075Z,45.25
2022-09-15T05:03:57.371Z,45.22
2022-09-15T05:06:29.819Z,44.90
2022-09-15T05:08:58.001Z,44.92
2022-09-15T05:11:25.978Z,45.12
2022-09-15T05:13:53.342Z,43.98
2022-09-15T05:16:23.158Z,43.84
2022-09-15T05:18:52.835Z,42.84
2022-09-15T05:21:21.608Z,42.28
2022-09-15T05:23:49.586Z,42.21
2022-09-15T05:26:20.344Z,42.07
2022-09-15T05:28:47.585Z,41.68
2022-09-15T05:31:27.047Z,41.04
2022-09-15T05:33:54.819Z,41.30
2022-09-15T05:36:25.601Z,40.26
2022-09-15T05:38:56.639Z,40.04
2022-09-15T05:41:25.358Z,40.11
2022-09-15T05:43:54.711Z,40.39
2022-09-15T05:46:22.643Z,40.48
2022-09-15T05:48:49.960Z,39.66
2022-09-15T05:51:17.171Z,39.71
2022-09-15T05:53:44.421Z,39.39
2022-09-15T05:56:14.194Z,39.27
2022-09-15T05:58:43.202Z,39.60
2022-09-15T06:01:22.476Z,40.01
2022-09-15T06:03:50.533Z,39.25
2022-09-15T06:06:18.318Z,38.99
2022-09-15T06:08:52.794Z,39.65
2022-09-15T06:11:25.256Z,39.77
2022-09-15T06:13:52.666Z,39.46
2022-09-15T06:16:23.530Z,39.21
2022-09-15T06:18:52.608Z,38.78
2022-09-15T06:21:25.773Z,39.06
2022-09-15T06:23:58.948Z,39.21
2022-09-15T06:26:27.926Z,39.23
2022-09-15T06:29:00.648Z,39.28
2022-09-15T06:31:31.422Z,38.55
2022-09-15T06:33:59.834Z,39.35
2022-09-15T06:36:29.144Z,39.71
2022-09-15T06:38:57.026Z,38.49
2022-09-15T06:41:24.351Z,39.34
2022-09-15T06:43:52.166Z,39.58
2022-09-15T06:46:22.341Z,38.86
2022-09-15T06:48:51.175Z,38.91
2022-09-15T06:51:20.749Z,38.00
2022-09-15T06:53:48.270Z,38.90
2022-09-15T06:56:18.117Z,38.83
2022-09-15T06:58:46.518Z,38.01
2022-09-15T07:01:19.194Z,38.31
2022-09-15T07:03:47.443Z,38.71
2022-09-15T07:06:14.948Z,38.21
2022-09-15T07:08:42.412Z,38.18
2022-09-15T07:11:10.679Z,38.06
2022-09-15T07:13:38.321Z,38.40
2022-09-15T07:16:07.607Z,38.69
2022-09-15T07:18:38.585Z,38.43
2022-09-15T07:21:11.791Z,39.01
2022-09-15T07:23:39.767Z,38.39
2022-09-15T07:26:17.463Z,38.62
2022-09-15T07:28:49.824Z,39.13
2022-09-15T07:31:20.068Z,38.64
2022-09-15T07:33:47.786Z,38.81
2022-09-15T07:36:15.445Z,38.46
2022-09-15T07:38:45.184Z,38.89
2022-09-15T07:41:15.063Z,38.67
2022-09-15T07:43:47.037Z,39.30
2022-09-15T07:46:15.554Z,41.32
2022-09-15T07:48:47.326Z,43.27
2022-09-15T07:51:15.665Z,41.54
2022-09-15T07:53:44.404Z,42.44
2022-09-15T07:56:11.955Z,42.79
2022-09-15T07:58:39.202Z,43.80
2022-09-15T08:01:16.579Z,43.21
2022-09-15T08:03:46.371Z,43.26
2022-09-15T08:06:13.825Z,45.32
2022-09-15T08:08:44.062Z,46.04
2022-09-15T08:11:18.379Z,46.62
2022-09-15T08:13:50.472Z,47.08
2022-09-15T08:16:20.756Z,47.61
2022-09-15T08:18:48.654Z,47.76
2022-09-15T08:21:20.104Z,47.01
2022-09-15T08:23:56.368Z,47.06
2022-09-15T08:26:24.537Z,45.57
2022-09-15T08:28:52.237Z,45.86
2022-09-15T08:31:19.671Z,44.96
2022-09-15T08:33:51.882Z,44.75
2022-09-15T08:36:19.317Z,43.92
2022-09-15T08:38:47.114Z,44.54
2022-09-15T08:41:34.687Z,45.73
2022-09-15T08:44:08.530Z,45.57
2022-09-15T08:46:41.495Z,45.31
2022-09-15T08:49:51.512Z,44.20
2022-09-15T08:52:25.026Z,44.77
2022-09-15T08:54:55.308Z,45.42
2022-09-15T08:57:25.875Z,45.93
2022-09-15T08:59:54.499Z,45.86
2022-09-15T09:02:30.527Z,46.27
2022-09-15T09:05:25.054Z,48.41
2022-09-15T09:07:59.694Z,49.79
2022-09-15T09:10:41.789Z,49.63
2022-09-15T09:13:14.965Z,50.53
2022-09-15T09:15:54.327Z,48.78
2022-09-15T09:18:35.890Z,48.58
2022-09-15T09:21:18.371Z,48.37
2022-09-15T09:24:04.300Z,47.13
2022-09-15T09:26:35.962Z,47.16
2022-09-15T09:29:20.940Z,46.94
2022-09-15T09:31:50.705Z,47.15
2022-09-15T09:34:39.815Z,48.17
2022-09-15T09:37:16.213Z,45.84
2022-09-15T09:39:43.446Z,46.44
2022-09-15T09:42:16.478Z,47.50
2022-09-15T09:44:44.221Z,46.48
2022-09-15T09:47:13.204Z,47.38
2022-09-15T09:49:45.414Z,46.49
2022-09-15T09:52:12.810Z,47.10
2022-09-15T09:54:41.664Z,44.63
2022-09-15T09:57:14.981Z,45.82
2022-09-15T09:59:43.450Z,45.30
2022-09-15T10:02:10.796Z,44.60
2022-09-15T10:04:39.035Z,44.59
2022-09-15T10:07:07.272Z,44.74
2022-09-15T10:09:34.724Z,44.88
2022-09-15T10:12:04.315Z,45.57
2022-09-15T10:14:42.061Z,45.87
2022-09-15T10:17:16.545Z,46.35
2022-09-15T10:19:52.821Z,48.59
2022-09-15T10:22:40.942Z,49.42
2022-09-15T10:25:20.257Z,50.80
2022-09-15T10:28:09.460Z,51.97
2022-09-15T10:30:37.511Z,52.54
2022-09-15T10:33:25.194Z,53.25
2022-09-15T10:35:54.632Z,52.20
2022-09-15T10:39:06.906Z,52.19
2022-09-15T10:41:42.518Z,53.51
2022-09-15T10:44:28.613Z,51.62
2022-09-15T10:47:10.857Z,52.46
2022-09-15T10:49:51.980Z,53.31
2022-09-15T10:52:47.055Z,51.84
2022-09-15T10:55:52.164Z,50.96
2022-09-15T10:59:59.782Z,49.97
2022-09-15T11:02:33.209Z,49.83
2022-09-15T11:05:10.883Z,50.99
2022-09-15T11:07:43.731Z,47.77
2022-09-15T11:10:19.692Z,49.91
2022-09-15T11:12:55.805Z,48.01
2022-09-15T11:15:58.934Z,45.67
2022-09-15T11:18:35.369Z,44.66
2022-09-15T11:21:39.372Z,44.17
2022-09-15T11:24:43.894Z,43.75
2022-09-15T11:27:23.488Z,40.39
2022-09-15T11:30:15.629Z,41.10
2022-09-15T11:32:58.655Z,40.81
2022-09-15T11:35:29.941Z,38.09
2022-09-15T11:38:04.772Z,37.72
2022-09-15T11:41:14.117Z,40.47
2022-09-15T11:43:58.905Z,41.14
2022-09-15T11:46:34.787Z,39.05
2022-09-15T11:49:09.039Z,40.21
2022-09-15T11:51:44.387Z,40.06
2022-09-15T11:54:22.546Z,41.50
2022-09-15T11:56:51.471Z,40.57
2022-09-15T11:59:28.667Z,41.79
2022-09-15T12:02:09.313Z,40.90
2022-09-15T12:04:57.860Z,41.03
2022-09-15T12:07:31.703Z,41.74
2022-09-15T12:10:13.996Z,41.25
2022-09-15T12:12:46.275Z,40.26
2022-09-15T12:15:19.423Z,38.93
2022-09-15T12:18:06.659Z,37.80
2022-09-15T12:21:12.132Z,36.84
2022-09-15T12:23:50.659Z,37.18
2022-09-15T12:26:20.807Z,36.38
2022-09-15T12:28:57.948Z,36.77
2022-09-15T12:31:38.637Z,37.54
2022-09-15T12:34:24.282Z,38.87
2022-09-15T12:37:06.550Z,38.50
2022-09-15T12:39:44.568Z,38.64
2022-09-15T12:42:28.119Z,38.04
2022-09-15T12:45:02.930Z,38.33
2022-09-15T12:47:42.354Z,38.62
2022-09-15T12:50:15.853Z,38.98
2022-09-15T12:52:47.323Z,39.43
2022-09-15T12:55:21.479Z,40.43
2022-09-15T12:57:54.572Z,40.26
2022-09-15T13:00:35.538Z,40.56
2022-09-15T13:03:04.918Z,40.71
2022-09-15T13:05:41.617Z,42.06
2022-09-15T13:08:34.704Z,42.75
2022-09-15T13:11:36.953Z,43.65
2022-09-15T13:14:04.340Z,43.71
2022-09-15T13:16:33.774Z,44.39
2022-09-15T13:19:32.998Z,45.56
2022-09-15T13:22:03.342Z,45.27
2022-09-15T13:25:10.796Z,45.88
2022-09-15T13:27:49.731Z,45.18
2022-09-15T13:30:29.173Z,44.82
2022-09-15T13:33:05.480Z,44.32
2022-09-15T13:36:00.302Z,45.07
2022-09-15T13:38:37.048Z,47.14
2022-09-15T13:41:42.992Z,48.25
2022-09-15T13:44:41.111Z,47.33
2022-09-15T13:47:31.442Z,47.47
2022-09-15T13:50:10.715Z,47.54
2022-09-15T13:53:09.105Z,47.21
2022-09-15T13:55:39.374Z,48.25
2022-09-15T14:01:03.338Z,47.31
2022-09-15T14:03:46.143Z,47.48
2022-09-15T14:06:36.742Z,46.63
2022-09-15T14:09:15.902Z,47.05
2022-09-15T14:11:43.976Z,45.79
2022-09-15T14:14:41.515Z,46.16
2022-09-15T14:17:24.072Z,45.46
2022-09-15T14:19:54.218Z,45.05
2022-09-15T14:22:21.832Z,44.30
2022-09-15T14:24:50.697Z,43.79
2022-09-15T14:27:33.623Z,44.36
2022-09-15T14:30:07.469Z,43.70
2022-09-15T14:32:38.709Z,43.74
2022-09-15T14:35:09.197Z,43.28
2022-09-15T14:37:36.527Z,44.23
2022-09-15T14:40:23.821Z,43.60
2022-09-15T14:42:51.395Z,43.19
2022-09-15T14:48:18.306Z,43.76
2022-09-15T14:50:54.274Z,42.93
2022-09-15T14:53:24.211Z,42.61
2022-09-15T14:56:08.174Z,42.00
2022-09-15T14:58:42.439Z,42.54
2022-09-15T15:01:21.770Z,42.09
2022-09-15T15:04:00.351Z,42.81
2022-09-15T15:06:33.772Z,42.63
2022-09-15T15:09:03.754Z,43.00
2022-09-15T15:11:33.200Z,42.49
2022-09-15T15:14:00.647Z,42.50
2022-09-15T15:16:30.943Z,42.76
2022-09-15T15:18:58.753Z,41.85
2022-09-15T15:21:45.204Z,42.39
2022-09-15T15:24:17.338Z,43.04
2022-09-15T15:26:47.339Z,43.11
2022-09-15T15:29:42.693Z,42.73
2022-09-15T15:32:25.107Z,43.81
2022-09-15T15:35:01.847Z,42.56
2022-09-15T15:37:32.427Z,42.93
2022-09-15T15:40:06.580Z,42.48
2022-09-15T15:42:34.516Z,42.72
2022-09-15T15:45:19.424Z,42.78
2022-09-15T15:47:46.699Z,42.61
2022-09-15T15:50:22.814Z,43.98
2022-09-15T15:52:50.527Z,44.01
2022-09-15T15:55:23.695Z,43.36
2022-09-15T15:57:53.582Z,43.78
2022-09-15T16:00:25.991Z,45.03
2022-09-15T16:02:53.378Z,45.98
2022-09-15T16:05:25.142Z,45.15
2022-09-15T16:07:53.395Z,44.26
2022-09-15T16:10:23.305Z,44.79
2022-09-15T16:12:50.692Z,44.36
2022-09-15T16:15:20.953Z,44.38
2022-09-15T16:17:49.020Z,44.36
2022-09-15T16:20:17.161Z,43.71
2022-09-15T16:22:44.467Z,43.13
2022-09-15T16:25:16.969Z,43.84
2022-09-15T16:27:44.425Z,43.56
2022-09-15T16:30:14.767Z,43.68
2022-09-15T16:32:42.042Z,44.71
2022-09-15T16:35:24.439Z,44.43
2022-09-15T16:37:51.670Z,44.11
2022-09-15T16:40:19.350Z,43.87
2022-09-15T16:42:47.903Z,44.37
2022-09-15T16:45:39.747Z,44.93
2022-09-15T16:48:09.441Z,45.25
2022-09-15T16:50:39.846Z,45.93
2022-09-15T16:53:21.481Z,46.28
2022-09-15T16:55:49.965Z,46.07
2022-09-15T16:58:18.415Z,46.69
2022-09-15T17:00:48.240Z,46.75
2022-09-15T17:03:24.303Z,46.33
2022-09-15T17:05:53.358Z,46.62
2022-09-15T17:08:23.253Z,46.66
2022-09-15T17:10:52.798Z,46.53
2022-09-15T17:13:24.014Z,46.29
2022-09-15T17:15:56.576Z,46.52
2022-09-15T17:18:23.956Z,46.21
2022-09-15T17:20:52.384Z,46.15
2022-09-15T17:23:25.506Z,46.34
2022-09-15T17:25:59.023Z,46.37
2022-09-15T17:28:31.085Z,46.49
2022-09-15T17:31:03.975Z,46.79
2022-09-15T17:33:32.920Z,46.81
2022-09-15T17:36:00.297Z,46.99
2022-09-15T17:38:27.835Z,47.47
2022-09-15T17:40:55.461Z,47.79
2022-09-15T17:43:28.357Z,48.51
2022-09-15T17:45:56.208Z,48.51
2022-09-15T17:48:24.264Z,48.87
2022-09-15T17:50:52.350Z,49.09
2022-09-15T17:53:26.869Z,49.42
2022-09-15T17:55:55.583Z,49.11
2022-09-15T17:58:24.913Z,49.52
2022-09-15T18:00:53.424Z,50.65
2022-09-15T18:03:35.922Z,49.88
2022-09-15T18:06:06.324Z,49.58
2022-09-15T18:08:35.818Z,49.79
2022-09-15T18:11:04.218Z,50.00
2022-09-15T18:13:31.485Z,49.74
2022-09-15T18:16:04.645Z,49.49
2022-09-15T18:18:31.941Z,49.34
2022-09-15T18:20:59.459Z,49.07
2022-09-15T18:23:31.095Z,48.73
2022-09-15T18:25:58.392Z,48.31
2022-09-15T18:28:26.616Z,48.01
2022-09-15T18:30:53.874Z,48.08
2022-09-15T18:33:22.557Z,48.01
2022-09-15T18:35:52.914Z,47.86
2022-09-15T18:38:20.760Z,48.15
2022-09-15T18:40:57.267Z,48.45
2022-09-15T18:43:26.671Z,48.49
2022-09-15T18:46:01.029Z,48.55
2022-09-15T18:48:29.239Z,48.40
2022-09-15T18:50:56.705Z,48.48
2022-09-15T18:53:24.572Z,48.46
2022-09-15T18:55:51.822Z,48.51
2022-09-15T18:58:22.648Z,48.38
2022-09-15T19:00:50.153Z,48.49
2022-09-15T19:03:17.363Z,48.69
2022-09-15T19:05:45.757Z,49.37
2022-09-15T19:08:13.174Z,49.15
2022-09-15T19:10:43.802Z,49.04
2022-09-15T19:13:12.159Z,48.89
2022-09-15T19:15:39.979Z,49.63
2022-09-15T19:18:07.355Z,48.60
2022-09-15T19:20:34.559Z,48.37
2022-09-15T19:23:01.806Z,48.59
2022-09-15T19:25:29.110Z,48.83
2022-09-15T19:27:56.503Z,48.86
2022-09-15T19:30:23.849Z,49.62
2022-09-15T19:32:51.631Z,49.74
2022-09-15T19:35:19.255Z,48.94
2022-09-15T19:37:46.433Z,48.05
2022-09-15T19:40:14.748Z,47.85
2022-09-15T19:42:43.941Z,46.64
2022-09-15T19:45:12.690Z,46.41
2022-09-15T19:47:40.592Z,46.17
2022-09-15T19:50:09.883Z,45.66
2022-09-15T19:52:37.153Z,45.90
2022-09-15T19:55:07.286Z,45.35
2022-09-15T19:57:34.613Z,45.73
2022-09-15T20:00:01.993Z,46.09
2022-09-15T20:02:31.747Z,45.82
2022-09-15T20:04:59.126Z,45.53
2022-09-15T20:07:26.331Z,45.41
2022-09-15T20:09:53.682Z,45.41
2022-09-15T20:14:53.128Z,45.66
2022-09-15T20:17:20.535Z,45.89
2022-09-15T20:19:47.811Z,45.75
2022-09-15T20:22:15.002Z,45.99
2022-09-15T20:24:42.254Z,45.82
2022-09-15T20:27:09.498Z,46.81
2022-09-15T20:29:36.686Z,46.90
2022-09-15T20:32:03.931Z,48.21
2022-09-15T20:34:31.405Z,48.81
2022-09-15T20:36:58.634Z,48.88
2022-09-15T20:39:25.878Z,48.99
2022-09-15T20:41:53.191Z,50.56
2022-09-15T20:44:20.395Z,52.71
2022-09-15T20:46:47.575Z,53.63
2022-09-15T20:49:14.800Z,56.55
2022-09-15T20:51:42.265Z,59.54
2022-09-15T20:54:10.824Z,59.46
2022-09-15T20:56:38.271Z,58.62
2022-09-15T20:59:06.425Z,55.59
2022-09-15T21:01:36.701Z,55.40
2022-09-15T21:04:05.626Z,53.07
2022-09-15T21:06:33.707Z,52.01
2022-09-15T21:09:00.986Z,52.63
2022-09-15T21:11:29.594Z,52.85
2022-09-15T21:13:57.497Z,53.14
2022-09-15T21:16:27.964Z,52.51
2022-09-15T21:18:57.186Z,51.42
2022-09-15T21:21:30.095Z,51.91
2022-09-15T21:24:01.224Z,51.72
2022-09-15T21:26:31.493Z,51.76
2022-09-15T21:28:58.717Z,52.06
2022-09-15T21:31:33.149Z,52.33
2022-09-15T21:34:00.424Z,52.69
2022-09-15T21:36:30.123Z,52.94
2022-09-15T21:38:59.024Z,53.28
2022-09-15T21:41:30.059Z,53.63
2022-09-15T21:43:59.107Z,53.81
2022-09-15T21:46:29.341Z,53.99
2022-09-15T21:48:58.335Z,54.27
2022-09-15T21:51:27.769Z,54.70
2022-09-15T21:53:56.733Z,54.61
2022-09-15T21:56:25.785Z,54.67
2022-09-15T21:58:54.250Z,55.11
2022-09-15T22:01:25.301Z,55.29
2022-09-15T22:03:58.446Z,55.19
2022-09-15T22:06:31.494Z,55.06
2022-09-15T22:09:54.873Z,55.96
2022-09-15T22:12:40.591Z,55.98
2022-09-15T22:15:08.236Z,55.69
2022-09-15T22:17:35.460Z,56.12
2022-09-15T22:20:03.026Z,55.53
2022-09-15T22:22:31.033Z,55.65
2022-09-15T22:24:58.659Z,55.53
2022-09-15T22:27:25.870Z,57.37
2022-09-15T22:29:52.975Z,60.29
2022-09-15T22:32:20.060Z,62.52
2022-09-15T22:34:47.829Z,65.12
2022-09-15T22:37:15.018Z,67.21
2022-09-15T22:39:58.372Z,69.68
2022-09-15T22:42:26.969Z,71.25
2022-09-15T22:44:54.050Z,72.45
2022-09-15T22:47:21.535Z,73.16
2022-09-15T22:49:48.743Z,73.46
2022-09-15T22:52:15.820Z,73.42
2022-09-15T22:54:42.928Z,73.53
2022-09-15T22:57:10.134Z,73.42
2022-09-15T22:59:37.336Z,73.45
2022-09-15T23:02:04.547Z,73.33
2022-09-15T23:04:31.712Z,72.85
2022-09-15T23:06:58.811Z,72.48
2022-09-15T23:09:26.445Z,72.37
2022-09-15T23:11:53.702Z,72.70
2022-09-15T23:14:20.845Z,73.31
2022-09-15T23:16:48.435Z,72.84
2022-09-15T23:19:15.752Z,73.03
2022-09-15T23:21:42.903Z,73.99
2022-09-15T23:24:12.491Z,74.69
2022-09-15T23:26:39.774Z,75.05
2022-09-15T23:29:06.896Z,76.02
2022-09-15T23:31:34.161Z,75.89
2022-09-15T23:34:01.756Z,75.48
2022-09-15T23:36:28.888Z,76.22
2022-09-15T23:38:55.989Z,76.55
2022-09-15T23:41:23.573Z,76.47
2022-09-15T23:43:51.066Z,76.83
2022-09-15T23:46:18.250Z,77.21
2022-09-15T23:48:45.444Z,77.32
2022-09-15T23:51:12.669Z,77.42
2022-09-15T23:53:39.894Z,77.44
2022-09-15T23:56:07.323Z,76.98
2022-09-15T23:58:34.548Z,76.78
